Time;durP1;ratioP1;P1;durP2;ratioP2;P2;SDS_P1;SDS_P2;PMS_P1;PMS_P2;Temp;Humidity;BMP_temperature;BMP_pressure;BME280_temperature;BME280_humidity;BME280_pressure;Samples;Min_cycle;Max_cycle;Signal;HPM_P1;HPM_P2
2023/07/12 00:03:54;;;;;;;10.93;6.43;;;;;;;;;;10503032;28;20240;-75
2023/07/12 00:08:54;;;;;;;9.85;6.15;;;;;;;;;;10502723;28;20061;-73
2023/07/12 00:13:54;;;;;;;13.90;6.00;;;;;;;;;;10502310;28;20232;-73
2023/07/12 00:18:56;;;;;;;11.67;6.20;;;;;;;;;;10503481;28;20029;-73
2023/07/12 00:23:57;;;;;;;14.27;5.95;;;;;;;;;;10502379;28;20203;-74
2023/07/12 00:28:58;;;;;;;12.75;6.43;;;;;;;;;;10502367;28;20214;-74
2023/07/12 00:33:58;;;;;;;12.95;6.63;;;;;;;;;;10501864;28;20236;-74
2023/07/12 00:38:59;;;;;;;13.32;6.43;;;;;;;;;;10501698;28;20025;-74
2023/07/12 00:44:24;;;;;;;13.23;6.63;;;;;;;;;;10501530;28;20234;-72
2023/07/12 00:49:25;;;;;;;8.63;5.85;;;;;;;;;;10502124;28;20314;-74
2023/07/12 00:54:26;;;;;;;8.60;5.95;;;;;;;;;;10501466;28;20057;-74
2023/07/12 00:59:29;;;;;;;8.63;6.40;;;;;;;;;;10499882;28;20028;-74
2023/07/12 01:04:31;;;;;;;14.50;6.30;;;;;;;;;;10500907;28;20322;-73
2023/07/12 01:09:32;;;;;;;11.15;6.28;;;;;;;;;;10500867;28;20025;-73
2023/07/12 01:14:32;;;;;;;12.27;6.60;;;;;;;;;;10500858;28;20230;-73
2023/07/12 01:19:34;;;;;;;9.63;6.43;;;;;;;;;;10500511;28;20090;-72
2023/07/12 01:24:35;;;;;;;6.78;5.45;;;;;;;;;;10500873;28;20095;-74
2023/07/12 01:29:35;;;;;;;10.40;6.55;;;;;;;;;;10500843;28;20024;-74
2023/07/12 01:34:35;;;;;;;11.57;6.40;;;;;;;;;;10499224;28;20048;-73
2023/07/12 01:39:36;;;;;;;17.02;7.63;;;;;;;;;;10500413;28;20237;-73
2023/07/12 01:44:37;;;;;;;12.32;6.78;;;;;;;;;;10498958;28;20221;-73
2023/07/12 01:49:37;;;;;;;14.63;7.38;;;;;;;;;;10506582;28;20028;-73
2023/07/12 01:54:37;;;;;;;11.85;6.53;;;;;;;;;;10508628;28;20111;-73
2023/07/12 01:59:37;;;;;;;10.80;7.30;;;;;;;;;;10507772;28;20017;-73
2023/07/12 02:04:38;;;;;;;10.43;7.00;;;;;;;;;;10506955;28;20138;-73
2023/07/12 02:09:40;;;;;;;10.38;6.07;;;;;;;;;;10507630;28;20028;-73
2023/07/12 02:14:40;;;;;;;11.93;6.60;;;;;;;;;;10506777;28;20021;-74
2023/07/12 02:19:40;;;;;;;11.85;6.60;;;;;;;;;;10507570;28;20024;-74
2023/07/12 02:24:41;;;;;;;11.25;6.95;;;;;;;;;;10506953;28;20038;-74
2023/07/12 02:29:41;;;;;;;13.13;6.90;;;;;;;;;;10506289;28;20083;-73
2023/07/12 02:34:41;;;;;;;11.23;7.28;;;;;;;;;;10506754;28;20334;-74
2023/07/12 02:39:41;;;;;;;16.88;10.30;;;;;;;;;;10506829;28;20039;-74
2023/07/12 02:44:42;;;;;;;16.65;8.00;;;;;;;;;;10506429;28;20028;-74
2023/07/12 02:49:42;;;;;;;14.32;8.50;;;;;;;;;;10504390;28;20322;-74
2023/07/12 02:54:42;;;;;;;12.67;8.40;;;;;;;;;;10505749;28;20040;-74
2023/07/12 02:59:43;;;;;;;11.35;7.88;;;;;;;;;;10504592;28;20059;-73
2023/07/12 03:04:43;;;;;;;15.53;9.00;;;;;;;;;;10505454;28;20093;-74
2023/07/12 03:09:43;;;;;;;15.85;7.63;;;;;;;;;;10505287;28;20020;-73
2023/07/12 03:14:43;;;;;;;14.00;8.40;;;;;;;;;;10505048;28;20211;-73
2023/07/12 03:19:44;;;;;;;12.07;8.20;;;;;;;;;;10504579;28;20032;-73
2023/07/12 03:24:44;;;;;;;12.95;8.02;;;;;;;;;;10505552;28;20315;-74
2023/07/12 03:29:44;;;;;;;20.52;9.27;;;;;;;;;;10504906;28;20020;-75
2023/07/12 03:34:44;;;;;;;12.73;8.93;;;;;;;;;;10503280;28;20521;-74
2023/07/12 03:39:45;;;;;;;18.65;10.35;;;;;;;;;;10503808;28;20083;-73
2023/07/12 03:44:45;;;;;;;18.97;10.27;;;;;;;;;;10504686;28;20083;-74
2023/07/12 03:49:45;;;;;;;20.05;10.70;;;;;;;;;;10502721;28;20295;-73
2023/07/12 03:54:45;;;;;;;22.92;9.95;;;;;;;;;;10503063;28;20032;-75
2023/07/12 03:59:46;;;;;;;18.60;10.35;;;;;;;;;;10503555;28;20016;-75
2023/07/12 04:04:46;;;;;;;17.08;10.60;;;;;;;;;;10503238;28;20203;-73
2023/07/12 04:09:46;;;;;;;16.52;10.20;;;;;;;;;;10502247;28;20028;-74
2023/07/12 04:14:46;;;;;;;15.52;9.75;;;;;;;;;;10503149;28;20315;-73
2023/07/12 04:19:47;;;;;;;20.00;10.50;;;;;;;;;;10501388;28;20028;-74
2023/07/12 04:24:53;;;;;;;16.23;10.85;;;;;;;;;;10501832;28;20019;-75
2023/07/12 04:29:53;;;;;;;17.08;10.77;;;;;;;;;;10502543;28;20012;-73
2023/07/12 04:34:54;;;;;;;24.52;13.23;;;;;;;;;;10502221;28;20267;-74
2023/07/12 04:39:54;;;;;;;16.67;10.55;;;;;;;;;;10501931;28;20016;-74
2023/07/12 04:44:54;;;;;;;20.08;11.57;;;;;;;;;;10502024;28;20023;-74
2023/07/12 04:49:54;;;;;;;17.67;11.48;;;;;;;;;;10501305;28;20021;-74
2023/07/12 04:54:56;;;;;;;14.82;8.82;;;;;;;;;;10501519;28;20332;-74
2023/07/12 04:59:56;;;;;;;11.38;6.93;;;;;;;;;;10501660;28;20032;-74
2023/07/12 05:04:56;;;;;;;15.38;6.85;;;;;;;;;;10501110;28;20020;-75
2023/07/12 05:09:57;;;;;;;9.85;6.93;;;;;;;;;;10499839;28;20117;-74
2023/07/12 05:14:57;;;;;;;14.20;6.67;;;;;;;;;;10498743;28;20029;-74
2023/07/12 05:20:17;;;;;;;11.25;7.35;;;;;;;;;;10498998;28;20285;-74
2023/07/12 05:25:18;;;;;;;11.32;7.05;;;;;;;;;;10500272;28;20016;-74
2023/07/12 05:30:18;;;;;;;8.88;6.63;;;;;;;;;;10498552;28;20039;-74
2023/07/12 05:35:18;;;;;;;9.98;6.47;;;;;;;;;;10498827;28;20028;-73
2023/07/12 05:40:19;;;;;;;15.40;6.75;;;;;;;;;;10500062;28;20044;-74
2023/07/12 05:45:20;;;;;;;15.30;7.10;;;;;;;;;;10499667;28;20207;-74
2023/07/12 05:50:20;;;;;;;18.23;8.10;;;;;;;;;;10499873;28;20087;-74
2023/07/12 05:55:21;;;;;;;14.45;7.43;;;;;;;;;;10500111;28;20108;-74
2023/07/12 06:00:21;;;;;;;18.77;8.18;;;;;;;;;;10500618;28;20071;-74
2023/07/12 06:05:22;;;;;;;17.08;7.45;;;;;;;;;;10498057;28;20020;-74
2023/07/12 06:10:22;;;;;;;14.25;8.85;;;;;;;;;;10498414;28;20058;-74
2023/07/12 06:15:22;;;;;;;17.30;7.95;;;;;;;;;;10498385;28;20025;-74
2023/07/12 06:20:22;;;;;;;17.63;8.38;;;;;;;;;;10498937;28;20032;-73
2023/07/12 06:25:23;;;;;;;14.60;7.32;;;;;;;;;;10498257;28;20074;-73
2023/07/12 06:30:23;;;;;;;13.38;7.80;;;;;;;;;;10499492;28;20315;-74
2023/07/12 06:35:23;;;;;;;13.65;7.65;;;;;;;;;;10505048;28;20036;-74
2023/07/12 06:40:24;;;;;;;9.87;6.93;;;;;;;;;;10506946;28;20094;-72
2023/07/12 06:45:27;;;;;;;19.25;7.53;;;;;;;;;;10506190;28;20344;-72
2023/07/12 06:50:27;;;;;;;15.20;7.60;;;;;;;;;;10506081;28;20021;-74
2023/07/12 06:55:28;;;;;;;12.03;6.57;;;;;;;;;;10504763;28;20119;-74
2023/07/12 07:00:28;;;;;;;15.57;6.68;;;;;;;;;;10505884;28;20020;-74
2023/07/12 07:05:28;;;;;;;18.65;9.07;;;;;;;;;;10506264;28;20051;-73
2023/07/12 07:10:28;;;;;;;11.53;6.53;;;;;;;;;;10505552;28;20298;-73
2023/07/12 07:15:29;;;;;;;11.55;5.95;;;;;;;;;;10505376;28;20035;-74
2023/07/12 07:20:29;;;;;;;10.80;5.67;;;;;;;;;;10503572;28;20037;-73
2023/07/12 07:25:29;;;;;;;12.50;6.15;;;;;;;;;;10504803;28;20046;-74
2023/07/12 07:30:31;;;;;;;10.60;5.30;;;;;;;;;;10504611;28;20016;-73
2023/07/12 07:35:31;;;;;;;14.88;7.50;;;;;;;;;;10503306;28;20043;-73
2023/07/12 07:40:31;;;;;;;19.33;7.83;;;;;;;;;;10503853;28;20027;-73
2023/07/12 07:45:32;;;;;;;15.05;6.72;;;;;;;;;;10503314;28;20044;-73
2023/07/12 07:50:58;;;;;;;16.17;6.47;;;;;;;;;;10504081;28;20036;-73
2023/07/12 07:55:58;;;;;;;13.85;6.78;;;;;;;;;;10492869;28;20052;-74
2023/07/12 08:00:59;;;;;;;16.35;7.55;;;;;;;;;;10501987;28;20062;-74
2023/07/12 08:06:00;;;;;;;19.23;8.07;;;;;;;;;;10502017;28;20123;-74
2023/07/12 08:11:03;;;;;;;13.90;6.93;;;;;;;;;;10503333;28;20074;-74
2023/07/12 08:16:04;;;;;;;19.73;6.80;;;;;;;;;;10502859;28;20091;-74
2023/07/12 08:21:04;;;;;;;20.33;7.47;;;;;;;;;;10501462;28;20268;-74
2023/07/12 08:26:05;;;;;;;28.15;9.95;;;;;;;;;;10502674;28;20210;-73
2023/07/12 08:31:05;;;;;;;19.25;9.02;;;;;;;;;;10502857;28;20305;-73
2023/07/12 08:36:11;;;;;;;24.92;9.57;;;;;;;;;;10502149;28;20070;-73
2023/07/12 08:41:17;;;;;;;17.90;8.35;;;;;;;;;;10502176;28;20317;-74
2023/07/12 08:46:20;;;;;;;24.45;8.38;;;;;;;;;;10501668;28;20021;-72
2023/07/12 08:51:31;;;;;;;14.77;8.45;;;;;;;;;;10501424;28;20025;-73
2023/07/12 08:56:31;;;;;;;21.92;8.23;;;;;;;;;;10500843;28;20093;-74
2023/07/12 09:01:51;;;;;;;22.38;7.32;;;;;;;;;;10500359;28;20241;-74
2023/07/12 09:06:55;;;;;;;16.42;7.45;;;;;;;;;;10501479;28;20019;-74
2023/07/12 09:11:55;;;;;;;9.63;5.75;;;;;;;;;;10500718;28;20025;-74
2023/07/12 09:16:57;;;;;;;9.18;5.45;;;;;;;;;;10500592;28;20230;-73
2023/07/12 09:21:59;;;;;;;11.75;5.40;;;;;;;;;;10500732;28;20025;-73
2023/07/12 09:27:05;;;;;;;10.15;5.60;;;;;;;;;;10501062;28;20255;-73
2023/07/12 09:32:16;;;;;;;9.60;5.68;;;;;;;;;;10500938;28;20275;-73
2023/07/12 09:37:28;;;;;;;11.38;5.78;;;;;;;;;;10499023;28;20029;-73
2023/07/12 09:42:47;;;;;;;10.00;5.65;;;;;;;;;;10500612;28;20020;-72
2023/07/12 09:47:50;;;;;;;14.50;6.60;;;;;;;;;;10501230;28;20345;-73
2023/07/12 09:52:51;;;;;;;15.15;5.28;;;;;;;;;;10499616;28;20040;-74
2023/07/12 09:58:10;;;;;;;11.73;5.80;;;;;;;;;;10500855;28;20028;-74
2023/07/12 10:03:30;;;;;;;11.55;5.95;;;;;;;;;;10498508;28;20206;-73
2023/07/12 10:08:50;;;;;;;11.00;5.70;;;;;;;;;;10503516;28;20533;-74
2023/07/12 10:13:53;;;;;;;10.70;5.03;;;;;;;;;;10507451;28;20062;-73
2023/07/12 10:18:55;;;;;;;13.63;5.15;;;;;;;;;;10507298;28;20265;-74
2023/07/12 10:23:59;;;;;;;8.60;3.85;;;;;;;;;;10507034;28;20032;-71
2023/07/12 10:29:19;;;;;;;8.05;4.03;;;;;;;;;;10507380;28;20028;-72
2023/07/12 10:34:19;;;;;;;9.15;4.18;;;;;;;;;;10507007;28;20108;-73
2023/07/12 10:39:19;;;;;;;8.65;3.50;;;;;;;;;;10506486;28;20028;-72
2023/07/12 10:44:21;;;;;;;6.70;4.03;;;;;;;;;;10505499;28;20016;-72
2023/07/12 10:49:41;;;;;;;10.18;4.25;;;;;;;;;;10506427;28;20319;-74
2023/07/12 10:55:11;;;;;;;9.52;4.13;;;;;;;;;;10504578;28;20345;-73
2023/07/12 11:00:20;;;;;;;6.18;3.40;;;;;;;;;;10488707;28;20036;-74
2023/07/12 11:05:39;;;;;;;12.52;4.60;;;;;;;;;;10506245;28;20080;-74
2023/07/12 11:10:42;;;;;;;10.18;4.10;;;;;;;;;;10504271;28;20218;-73
2023/07/12 11:15:50;;;;;;;5.75;3.53;;;;;;;;;;10504589;28;20362;-73
2023/07/12 11:21:24;;;;;;;12.93;4.25;;;;;;;;;;10503070;28;20020;-73
2023/07/12 11:26:26;;;;;;;14.02;4.55;;;;;;;;;;10505419;28;20062;-74
2023/07/12 11:31:31;;;;;;;9.27;4.57;;;;;;;;;;10504844;28;20603;-73
2023/07/12 11:36:33;;;;;;;9.07;4.20;;;;;;;;;;10505302;28;20021;-73
2023/07/12 11:41:33;;;;;;;9.07;4.38;;;;;;;;;;10504437;28;20214;-73
2023/07/12 11:46:35;;;;;;;10.02;4.60;;;;;;;;;;10504832;28;20024;-74
2023/07/12 11:51:36;;;;;;;9.52;4.70;;;;;;;;;;10502678;28;20032;-74
2023/07/12 11:56:40;;;;;;;8.90;4.90;;;;;;;;;;10504193;28;20214;-74
2023/07/12 12:01:41;;;;;;;6.13;4.70;;;;;;;;;;10502667;28;20013;-74
2023/07/12 12:06:43;;;;;;;9.48;4.78;;;;;;;;;;10503313;28;20094;-72
2023/07/12 12:11:44;;;;;;;12.93;4.70;;;;;;;;;;10502781;28;20016;-73
2023/07/12 12:16:49;;;;;;;8.60;4.82;;;;;;;;;;10502977;28;20334;-72
2023/07/12 12:21:51;;;;;;;17.23;4.85;;;;;;;;;;10501461;28;20307;-72
2023/07/12 12:26:52;;;;;;;7.45;4.85;;;;;;;;;;10502510;28;20350;-74
2023/07/12 12:31:57;;;;;;;10.55;5.50;;;;;;;;;;10502199;28;20021;-73
2023/07/12 12:37:00;;;;;;;9.00;4.50;;;;;;;;;;10502052;28;20066;-73
2023/07/12 12:42:16;;;;;;;10.13;5.05;;;;;;;;;;10502301;28;20020;-74
2023/07/12 12:47:22;;;;;;;9.47;5.07;;;;;;;;;;10502093;28;20035;-74
2023/07/12 12:52:23;;;;;;;9.75;5.25;;;;;;;;;;10500040;28;20040;-72
2023/07/12 12:57:23;;;;;;;10.07;5.13;;;;;;;;;;10500417;28;20020;-74
2023/07/12 13:02:23;;;;;;;12.43;4.53;;;;;;;;;;10501618;28;20238;-74
2023/07/12 13:07:27;;;;;;;7.93;4.68;;;;;;;;;;10500995;28;20043;-73
2023/07/12 13:12:47;;;;;;;10.32;4.97;;;;;;;;;;10499909;28;20012;-72
2023/07/12 13:17:49;;;;;;;7.80;4.10;;;;;;;;;;10487207;28;20040;-73
2023/07/12 13:22:49;;;;;;;10.95;4.97;;;;;;;;;;10500768;28;20023;-73
2023/07/12 13:27:53;;;;;;;12.07;5.63;;;;;;;;;;10500889;28;20048;-72
2023/07/12 13:32:53;;;;;;;13.75;4.90;;;;;;;;;;10501620;28;20020;-73
2023/07/12 13:37:54;;;;;;;8.65;4.90;;;;;;;;;;10500336;28;20103;-73
2023/07/12 13:42:55;;;;;;;6.03;4.78;;;;;;;;;;10503374;28;20020;-73
2023/07/12 13:47:56;;;;;;;7.35;4.78;;;;;;;;;;10508834;28;20016;-72
2023/07/12 13:52:59;;;;;;;13.05;4.95;;;;;;;;;;10508194;28;20036;-74
2023/07/12 13:57:59;;;;;;;5.35;3.75;;;;;;;;;;10508400;28;20232;-74
2023/07/12 14:03:01;;;;;;;9.90;4.78;;;;;;;;;;10508208;28;20016;-74
2023/07/12 14:08:01;;;;;;;6.82;3.75;;;;;;;;;;10508180;28;20424;-74
2023/07/12 14:13:40;;;;;;;7.05;3.67;;;;;;;;;;10507993;28;20017;-74
2023/07/12 14:18:40;;;;;;;6.20;3.25;;;;;;;;;;10497581;28;20227;-73
2023/07/12 14:23:47;;;;;;;5.65;3.67;;;;;;;;;;10507474;28;20067;-73
2023/07/12 14:29:02;;;;;;;;;;;;;;;;;;10507343;28;20236;-72
2023/07/12 14:34:04;;;;;;;4.97;3.60;;;;;;;;;;10505714;28;19964;-74
2023/07/12 14:39:07;;;;;;;5.68;3.40;;;;;;;;;;10506336;28;20032;-73
2023/07/12 14:44:12;;;;;;;9.45;3.47;;;;;;;;;;10506484;28;20315;-73
2023/07/12 14:49:12;;;;;;;11.15;3.55;;;;;;;;;;10506347;28;20094;-73
2023/07/12 14:54:12;;;;;;;9.95;3.25;;;;;;;;;;10506590;28;20064;-74
2023/07/12 14:59:12;;;;;;;6.73;2.77;;;;;;;;;;10504693;28;20035;-74
2023/07/12 15:04:22;;;;;;;5.25;3.15;;;;;;;;;;10505883;28;20027;-72
2023/07/12 15:15:08;;;;;;;5.10;2.92;;;;;;;;;;10416128;28;20243;-73
2023/07/12 15:20:18;;;;;;;3.90;2.87;;;;;;;;;;10505402;28;20036;-74
2023/07/12 15:25:24;;;;;;;6.60;3.15;;;;;;;;;;10504347;28;20023;-73
2023/07/12 15:36:14;;;;;;;4.63;2.67;;;;;;;;;;10445079;28;20235;-73
2023/07/12 15:41:17;;;;;;;6.00;2.40;;;;;;;;;;10504494;28;20032;-73
2023/07/12 15:46:20;;;;;;;4.07;2.53;;;;;;;;;;10502597;28;20024;-73
2023/07/12 15:51:24;;;;;;;5.13;2.35;;;;;;;;;;10503481;28;20333;-73
2023/07/12 15:56:29;;;;;;;12.30;2.67;;;;;;;;;;10503593;28;20358;-72
2023/07/12 16:01:30;;;;;;;3.92;2.40;;;;;;;;;;10502344;28;20261;-73
2023/07/12 16:06:31;;;;;;;6.25;2.50;;;;;;;;;;10502809;28;20028;-74
2023/07/12 16:11:34;;;;;;;6.55;3.00;;;;;;;;;;10501332;28;20024;-74
2023/07/12 16:16:34;;;;;;;9.05;2.58;;;;;;;;;;10503010;28;20214;-74
2023/07/12 16:21:34;;;;;;;3.95;2.28;;;;;;;;;;10502805;28;20092;-73
2023/07/12 16:26:35;;;;;;;6.03;2.70;;;;;;;;;;10502284;28;20040;-74
2023/07/12 16:31:35;;;;;;;7.03;2.43;;;;;;;;;;10502336;28;20020;-73
2023/07/12 16:36:35;;;;;;;6.13;1.93;;;;;;;;;;10500995;28;20223;-74
2023/07/12 16:41:39;;;;;;;5.75;2.50;;;;;;;;;;10501944;28;20016;-73
2023/07/12 16:46:39;;;;;;;9.45;2.70;;;;;;;;;;10500881;28;20270;-72
2023/07/12 16:52:00;;;;;;;6.28;2.75;;;;;;;;;;10500049;28;20041;-73
2023/07/12 16:57:00;;;;;;;11.75;2.58;;;;;;;;;;10501155;28;20080;-72
2023/07/12 17:02:02;;;;;;;4.65;2.65;;;;;;;;;;10501245;28;20255;-72
2023/07/12 17:07:05;;;;;;;4.45;2.25;;;;;;;;;;10501217;28;20034;-72
2023/07/12 17:12:09;;;;;;;6.47;2.88;;;;;;;;;;10505696;28;20039;-73
2023/07/12 17:17:09;;;;;;;14.00;5.63;;;;;;;;;;10500207;28;20282;-72
2023/07/12 17:22:16;;;;;;;21.50;9.68;;;;;;;;;;10500813;28;20039;-72
2023/07/12 17:27:17;;;;;;;8.52;5.20;;;;;;;;;;10500851;28;20024;-73
2023/07/12 17:32:27;;;;;;;7.55;3.97;;;;;;;;;;10500350;28;20024;-72
2023/07/12 17:37:39;;;;;;;8.10;2.95;;;;;;;;;;10500491;28;20024;-72
2023/07/12 17:42:40;;;;;;;13.05;3.45;;;;;;;;;;10498993;28;20020;-72
2023/07/12 17:47:40;;;;;;;5.93;3.28;;;;;;;;;;10499047;28;20032;-73
2023/07/12 17:52:40;;;;;;;12.52;4.80;;;;;;;;;;10500304;28;20044;-73
2023/07/12 17:57:40;;;;;;;12.50;3.97;;;;;;;;;;10500550;28;20251;-73
2023/07/12 18:02:41;;;;;;;18.88;6.45;;;;;;;;;;10499974;28;20311;-73
2023/07/12 18:07:41;;;;;;;21.58;5.30;;;;;;;;;;10500289;28;20200;-74
2023/07/12 18:12:41;;;;;;;22.03;11.30;;;;;;;;;;10500745;28;20302;-74
2023/07/12 18:17:41;;;;;;;19.02;9.77;;;;;;;;;;10499690;28;20028;-72
2023/07/12 18:22:42;;;;;;;18.30;9.45;;;;;;;;;;10499524;28;20028;-74
2023/07/12 18:27:43;;;;;;;15.82;7.40;;;;;;;;;;10499517;28;20126;-72
2023/07/12 18:32:43;;;;;;;8.23;2.92;;;;;;;;;;10506824;28;20023;-73
2023/07/12 18:37:43;;;;;;;5.28;2.95;;;;;;;;;;10506672;28;20048;-73
2023/07/12 18:42:44;;;;;;;9.73;3.47;;;;;;;;;;10506439;28;20340;-74
2023/07/12 18:47:46;;;;;;;7.90;5.40;;;;;;;;;;10506270;28;20083;-73
2023/07/12 18:52:47;;;;;;;11.00;3.83;;;;;;;;;;10506092;28;20036;-72
2023/07/12 18:57:49;;;;;;;10.65;4.60;;;;;;;;;;10504600;28;20295;-73
2023/07/12 19:02:50;;;;;;;22.60;4.30;;;;;;;;;;10505766;28;20036;-74
2023/07/12 19:07:50;;;;;;;8.67;3.90;;;;;;;;;;10505345;28;20039;-73
2023/07/12 19:12:51;;;;;;;12.35;5.00;;;;;;;;;;10505316;28;20061;-73
2023/07/12 19:17:51;;;;;;;10.00;4.75;;;;;;;;;;10506077;28;20086;-73
2023/07/12 19:22:51;;;;;;;7.18;3.78;;;;;;;;;;10505293;28;20341;-73
2023/07/12 19:27:52;;;;;;;9.35;5.28;;;;;;;;;;10503447;28;20025;-72
2023/07/12 19:32:52;;;;;;;9.75;4.07;;;;;;;;;;10503098;28;20360;-74
2023/07/12 19:37:53;;;;;;;8.85;4.40;;;;;;;;;;10504879;28;20024;-73
2023/07/12 19:42:53;;;;;;;11.45;4.40;;;;;;;;;;10504010;28;20054;-74
2023/07/12 19:47:54;;;;;;;9.47;4.90;;;;;;;;;;10504541;28;20040;-73
2023/07/12 19:52:54;;;;;;;7.07;3.60;;;;;;;;;;10503921;28;20349;-74
2023/07/12 19:57:55;;;;;;;7.75;3.50;;;;;;;;;;10502632;28;20035;-74
2023/07/12 20:02:56;;;;;;;7.10;2.80;;;;;;;;;;10502447;28;20270;-73
2023/07/12 20:07:57;;;;;;;4.10;2.67;;;;;;;;;;10503449;28;20071;-74
2023/07/12 20:12:58;;;;;;;6.60;3.22;;;;;;;;;;10503479;28;20254;-72
2023/07/12 20:17:59;;;;;;;5.75;3.17;;;;;;;;;;10506149;28;20048;-73
2023/07/12 20:23:00;;;;;;;4.60;2.92;;;;;;;;;;10501288;28;20016;-74
2023/07/12 20:28:03;;;;;;;6.53;2.80;;;;;;;;;;10501470;28;20038;-73
2023/07/12 20:33:03;;;;;;;4.38;2.80;;;;;;;;;;10501425;28;20103;-73
2023/07/12 20:38:04;;;;;;;4.07;2.80;;;;;;;;;;10501954;28;20207;-74
2023/07/12 20:43:05;;;;;;;6.53;3.15;;;;;;;;;;10501677;28;20026;-74
2023/07/12 20:48:06;;;;;;;7.15;2.70;;;;;;;;;;10500650;28;20016;-73
2023/07/12 20:53:08;;;;;;;4.20;2.78;;;;;;;;;;10501205;28;20368;-73
2023/07/12 20:58:08;;;;;;;2.97;2.17;;;;;;;;;;10501103;28;20047;-73
2023/07/12 21:03:09;;;;;;;5.53;2.72;;;;;;;;;;10500255;28;20015;-74
2023/07/12 21:08:10;;;;;;;6.27;2.83;;;;;;;;;;10499699;28;20021;-73
2023/07/12 21:13:10;;;;;;;3.67;2.35;;;;;;;;;;10500935;28;20326;-75
2023/07/12 21:18:10;;;;;;;3.63;2.60;;;;;;;;;;10499786;28;20028;-74
2023/07/12 21:23:11;;;;;;;6.07;3.23;;;;;;;;;;10500621;28;20303;-74
2023/07/12 21:28:13;;;;;;;6.28;3.83;;;;;;;;;;10500883;28;20361;-74
2023/07/12 21:33:13;;;;;;;7.28;3.15;;;;;;;;;;10500099;28;20039;-74
2023/07/12 21:38:14;;;;;;;5.22;2.80;;;;;;;;;;10500159;28;20028;-74
2023/07/12 21:43:15;;;;;;;3.20;2.47;;;;;;;;;;10500398;28;20075;-74
2023/07/12 21:48:16;;;;;;;5.00;2.38;;;;;;;;;;10500087;28;20089;-74
2023/07/12 21:53:16;;;;;;;7.43;3.00;;;;;;;;;;10500029;28;20051;-74
2023/07/12 21:58:16;;;;;;;11.20;3.50;;;;;;;;;;10498801;28;20044;-73
2023/07/12 22:03:17;;;;;;;7.65;3.35;;;;;;;;;;10501298;28;20012;-73
2023/07/12 22:08:17;;;;;;;9.07;3.40;;;;;;;;;;10512416;28;20016;-73
2023/07/12 22:13:17;;;;;;;4.55;3.05;;;;;;;;;;10507199;28;20365;-73
2023/07/12 22:18:18;;;;;;;8.50;4.18;;;;;;;;;;10506189;28;20040;-72
2023/07/12 22:23:18;;;;;;;7.03;3.67;;;;;;;;;;10507973;28;20330;-73
2023/07/12 22:28:18;;;;;;;4.95;3.53;;;;;;;;;;10507308;28;20207;-74
2023/07/12 22:33:18;;;;;;;5.88;3.38;;;;;;;;;;10507240;28;20070;-74
2023/07/12 22:38:19;;;;;;;7.32;3.85;;;;;;;;;;10506160;28;20028;-73
2023/07/12 22:43:19;;;;;;;4.78;2.80;;;;;;;;;;10505533;28;20028;-74
2023/07/12 22:48:20;;;;;;;7.88;3.45;;;;;;;;;;10506480;28;20020;-74
2023/07/12 22:53:20;;;;;;;10.18;3.90;;;;;;;;;;10505929;28;20033;-75
2023/07/12 22:58:20;;;;;;;12.15;5.40;;;;;;;;;;10504749;28;20028;-75
2023/07/12 23:03:21;;;;;;;7.88;3.65;;;;;;;;;;10505443;28;20325;-73
2023/07/12 23:08:22;;;;;;;7.53;4.18;;;;;;;;;;10505409;28;20292;-73
2023/07/12 23:13:25;;;;;;;6.20;3.17;;;;;;;;;;10506527;28;20030;-74
2023/07/12 23:18:26;;;;;;;5.07;3.40;;;;;;;;;;10503302;28;20051;-73
2023/07/12 23:23:26;;;;;;;5.50;3.55;;;;;;;;;;10504830;28;20019;-73
2023/07/12 23:28:26;;;;;;;5.32;4.00;;;;;;;;;;10504808;28;20035;-73
2023/07/12 23:33:26;;;;;;;4.97;3.47;;;;;;;;;;10504831;28;20302;-73
2023/07/12 23:38:27;;;;;;;7.10;3.47;;;;;;;;;;10503990;28;20093;-74
2023/07/12 23:43:27;;;;;;;6.50;3.58;;;;;;;;;;10504786;28;20307;-73
2023/07/12 23:48:36;;;;;;;9.93;4.35;;;;;;;;;;10502947;28;20057;-73
2023/07/12 23:53:37;;;;;;;7.22;4.07;;;;;;;;;;10504581;28;20067;-74
2023/07/12 23:58:37;;;;;;;7.32;4.47;;;;;;;;;;10503573;28;20063;-74
